LFBT/LDE METAR and TAF weather

Enter ICAO airport designator
Station Type Date Time Source
LFBT METAR 2021/04/18 02:30 UTC NOAA

LFBT 180230Z AUTO 20006KT CAVOK 03/M01 Q1022 NOSIG


Station Type Date Time Source
LFBT Decoded METAR 2021/04/18 02:30 UTC NOAA

Tarbes Ossun Lourdes, France (LFBT) 43-11N 000-00W 363M
Apr 17, 2021 - 10:30 PM EDT / 2021.04.18 0230 UTC
Wind: from the SSW (200 degrees) at 7 MPH (6 KT):0
Visibility: greater than 7 mile(s):0
Temperature: 37 F (3 C)
Dew Point: 30 F (-1 C)
Relative Humidity: 74%
Pressure (altimeter): 30.18 in. Hg (1022 hPa)
ob: LFBT 180230Z AUTO 20006KT CAVOK 03/M01 Q1022 NOSIG
cycle: 2

Station Type Date Time Source
LFBT TAF 2021/04/17 18:46 UTC NOAA

TAF LFBT 171700Z 1718/1818 24008KT 9999 BKN050 PROB30
TEMPO 1718/1724 -SHRA SCT035TCU PROB30
TEMPO 1805/1807 4000 BR BKN004
BECMG 1808/1810 31006KT
BECMG 1816/1818 CAVOK

Example: see airport list